Карточка аэропорта UASP

Внимание!
Информация на этой странице в стадии наполнения.
Если вы не увидели какой-то информации, или заметили неточность - пожалуйста сообщите нам!
Спасибо!
Команда RU-STAFF
Название аэропортаПавлодар
Название аэропорта (англ.)Pavlodar
Превышение410 ft. (125 m.)
Координаты52°11.7', 77°4.4339999999997'
Высота перехода10000ft
Эшелон переходаFL120, QNH<733:FL130
Коды ответчика0640-0647, 7240-7247
Зона ОрВДАстана РПИ (UACN)
Данные METARUASP 251100Z 14006MPS 9999 VCTS BKN048CB 29/15 Q1004 NOSIG RMK QFE743/0990
Проноз погоды (TAF)UASP 250802Z 2509/2518 03003G09MPS 9999 BKN015CB TEMPO 2509/2515 VRB17MPS 3100 -TSRA SQ TEMPO 2515/2518 VRB01MPS 3100 FU
NOTAMshow/hide NOTAM
AWOS   TABLE

Информация о ВПП

ВПП Длина ВПП (м.) Покрытие Курс ВПП Частота ILS
032500Цементобетон34 
212500Цементобетон214110.7

Диспетчерские позиции




Спутниковое изображение